Time;durP1;ratioP1;P1;durP2;ratioP2;P2;SDS_P1;SDS_P2;PMS_P1;PMS_P2;Temp;Humidity;BMP_temperature;BMP_pressure;BME280_temperature;BME280_humidity;BME280_pressure;Samples;Min_cycle;Max_cycle;Signal;HPM_P1;HPM_P2
2021/09/02 00:00:33;;;;;;;8.00;4.60;;;16.40;99.90;;;;;;4993323;28;20229;-69
2021/09/02 00:02:59;;;;;;;6.50;4.53;;;16.40;99.90;;;;;;5006512;28;20291;-69
2021/09/02 00:05:25;;;;;;;6.20;4.97;;;16.40;99.90;;;;;;5009377;28;20464;-70
2021/09/02 00:07:51;;;;;;;6.40;5.00;;;16.40;99.90;;;;;;4991244;28;20220;-69
2021/09/02 00:10:17;;;;;;;5.73;4.60;;;16.40;99.90;;;;;;4993155;28;20271;-69
2021/09/02 00:12:42;;;;;;;6.33;4.80;;;16.40;99.90;;;;;;4990105;28;20224;-69
2021/09/02 00:15:09;;;;;;;5.03;4.57;;;16.40;99.90;;;;;;5009180;28;20535;-69
2021/09/02 00:17:35;;;;;;;7.33;4.57;;;16.30;99.90;;;;;;4996583;28;20221;-69
2021/09/02 00:20:02;;;;;;;8.13;5.00;;;16.30;99.90;;;;;;5010635;28;20526;-69
2021/09/02 00:22:28;;;;;;;6.60;4.63;;;16.30;99.90;;;;;;5011658;28;20686;-70
2021/09/02 00:24:53;;;;;;;8.13;5.50;;;16.30;99.90;;;;;;4990626;28;20522;-69
2021/09/02 00:27:19;;;;;;;6.70;5.03;;;16.20;99.90;;;;;;5008403;28;20213;-70
2021/09/02 00:29:45;;;;;;;11.73;4.83;;;16.20;99.90;;;;;;5007057;28;20213;-70
2021/09/02 00:32:10;;;;;;;6.27;4.57;;;16.20;99.90;;;;;;5008480;28;20241;-69
2021/09/02 00:34:36;;;;;;;6.37;5.00;;;16.10;99.90;;;;;;4992817;28;20592;-70
2021/09/02 00:37:02;;;;;;;7.20;5.03;;;16.10;99.90;;;;;;4991992;28;20227;-69
2021/09/02 00:39:28;;;;;;;4.77;4.30;;;16.10;99.90;;;;;;4992506;28;20217;-69
2021/09/02 00:41:54;;;;;;;4.83;3.50;;;16.20;99.90;;;;;;4989274;28;20480;-68
2021/09/02 00:44:33;;;;;;;5.40;4.60;;;16.20;99.90;;;;;;5008724;28;20248;-69
2021/09/02 00:47:01;;;;;;;6.37;4.80;;;16.10;99.90;;;;;;5021960;28;20220;-68
2021/09/02 00:49:27;;;;;;;7.67;5.20;;;16.10;99.90;;;;;;5002852;28;20570;-69
2021/09/02 00:51:52;;;;;;;7.30;4.37;;;16.10;99.90;;;;;;4988684;28;20499;-69
2021/09/02 00:54:19;;;;;;;6.43;4.77;;;16.10;99.90;;;;;;4991715;28;20460;-69
2021/09/02 00:56:44;;;;;;;5.57;4.50;;;16.00;99.90;;;;;;4986115;28;20476;-69
2021/09/02 00:59:10;;;;;;;6.37;4.57;;;16.00;99.90;;;;;;5007938;28;20756;-69
2021/09/02 01:01:36;;;;;;;4.97;4.20;;;16.00;99.90;;;;;;5006844;28;20228;-69
2021/09/02 01:04:03;;;;;;;8.03;5.20;;;16.00;99.90;;;;;;4990194;28;20749;-69
2021/09/02 01:06:29;;;;;;;6.33;4.97;;;16.00;99.90;;;;;;5008391;28;20732;-70
2021/09/02 01:08:55;;;;;;;5.97;4.70;;;16.00;99.90;;;;;;5006095;28;20453;-68
2021/09/02 01:11:22;;;;;;;4.70;4.20;;;16.00;99.90;;;;;;5007445;28;20471;-68
2021/09/02 01:13:48;;;;;;;5.00;4.13;;;15.90;99.90;;;;;;5006658;28;20484;-69
2021/09/02 01:16:14;;;;;;;4.70;4.23;;;15.90;99.90;;;;;;5007894;28;21000;-70
2021/09/02 01:18:39;;;;;;;5.97;4.70;;;15.90;99.90;;;;;;4990174;28;20221;-69
2021/09/02 01:21:05;;;;;;;7.10;3.93;;;15.80;99.90;;;;;;5002647;28;20324;-69
2021/09/02 01:23:38;;;;;;;7.43;4.70;;;15.80;99.90;;;;;;4999415;28;20221;-69
2021/09/02 01:26:19;;;;;;;8.50;5.37;;;15.70;99.90;;;;;;4989720;28;20255;-69
2021/09/02 01:28:45;;;;;;;7.07;5.87;;;15.70;99.90;;;;;;5017169;28;20460;-69
2021/09/02 01:31:13;;;;;;;6.40;5.07;;;15.70;99.90;;;;;;4991104;28;20464;-68
2021/09/02 01:33:49;;;;;;;5.00;4.50;;;15.70;99.90;;;;;;4988201;28;21057;-70
2021/09/02 01:36:15;;;;;;;5.60;4.70;;;15.70;99.90;;;;;;4985266;28;20496;-68
2021/09/02 01:38:41;;;;;;;5.70;4.33;;;15.60;99.90;;;;;;4985514;28;20496;-68
2021/09/02 01:41:06;;;;;;;8.93;5.10;;;15.60;99.90;;;;;;5002363;28;20492;-69
2021/09/02 01:43:32;;;;;;;5.33;4.40;;;15.60;99.90;;;;;;5006304;28;20632;-68
2021/09/02 01:45:58;;;;;;;6.80;5.00;;;15.60;99.90;;;;;;5003135;28;20221;-68
2021/09/02 01:48:23;;;;;;;5.53;3.90;;;15.60;99.90;;;;;;4997574;28;20229;-69
2021/09/02 01:50:49;;;;;;;6.97;5.00;;;15.60;99.90;;;;;;5002657;28;20215;-69
2021/09/02 01:53:18;;;;;;;4.10;3.70;;;15.60;99.90;;;;;;5007086;28;20217;-70
2021/09/02 01:55:46;;;;;;;6.07;4.67;;;15.60;99.90;;;;;;4983584;28;20225;-69
2021/09/02 01:58:12;;;;;;;8.50;4.57;;;15.60;99.90;;;;;;4998758;28;21068;-69
2021/09/02 02:00:38;;;;;;;6.10;4.43;;;15.60;99.90;;;;;;5002313;28;20543;-69
2021/09/02 02:03:05;;;;;;;6.63;4.13;;;15.50;99.90;;;;;;5006766;28;20456;-69
2021/09/02 02:05:31;;;;;;;5.70;4.60;;;15.50;99.90;;;;;;4993134;28;20452;-69
2021/09/02 02:07:57;;;;;;;6.77;4.63;;;15.50;99.90;;;;;;4999855;28;20428;-69
2021/09/02 02:10:26;;;;;;;6.40;4.80;;;15.50;99.90;;;;;;4982573;28;20736;-69
2021/09/02 02:12:54;;;;;;;8.97;4.87;;;15.50;99.90;;;;;;4998810;28;20487;-67
2021/09/02 02:15:19;;;;;;;6.80;5.10;;;15.40;99.90;;;;;;4999568;28;21052;-70
2021/09/02 02:17:45;;;;;;;6.67;4.37;;;15.40;99.90;;;;;;4985754;28;20563;-69
2021/09/02 02:20:12;;;;;;;5.57;4.20;;;15.40;99.90;;;;;;5000588;28;20264;-69
2021/09/02 02:22:40;;;;;;;5.73;4.50;;;15.30;99.90;;;;;;4987365;28;20296;-70
2021/09/02 02:25:07;;;;;;;6.50;4.27;;;15.30;99.90;;;;;;4979052;28;20460;-69
2021/09/02 02:27:33;;;;;;;5.97;4.40;;;15.30;99.90;;;;;;4989794;28;20455;-69
2021/09/02 02:30:00;;;;;;;6.67;4.20;;;15.20;99.90;;;;;;4988488;28;20452;-69
2021/09/02 02:32:25;;;;;;;6.07;5.23;;;15.30;99.90;;;;;;4987559;28;20570;-69
2021/09/02 02:34:51;;;;;;;5.77;4.27;;;15.20;99.90;;;;;;4988377;28;20459;-69
2021/09/02 02:37:17;;;;;;;7.47;4.17;;;15.20;99.90;;;;;;4990041;28;20251;-69
2021/09/02 02:39:43;;;;;;;5.67;4.57;;;15.20;99.90;;;;;;4984172;28;20209;-68
2021/09/02 02:42:09;;;;;;;6.40;4.33;;;15.20;99.90;;;;;;4990258;28;20230;-69
2021/09/02 02:44:36;;;;;;;7.97;5.00;;;15.20;99.90;;;;;;5001155;28;20535;-68
2021/09/02 02:47:04;;;;;;;5.80;4.00;;;15.20;99.90;;;;;;5001139;28;21051;-68
2021/09/02 02:49:30;;;;;;;5.70;4.67;;;15.20;99.90;;;;;;5003678;28;20472;-69
2021/09/02 02:51:56;;;;;;;5.57;4.10;;;15.20;99.90;;;;;;4984736;28;20482;-68
2021/09/02 02:54:21;;;;;;;5.40;4.20;;;15.10;99.90;;;;;;4999900;28;20480;-69
2021/09/02 02:56:47;;;;;;;10.50;5.03;;;15.10;99.90;;;;;;4997641;28;20242;-68
2021/09/02 02:59:13;;;;;;;4.37;3.80;;;15.10;99.90;;;;;;4999378;28;20226;-68
2021/09/02 03:01:39;;;;;;;6.70;4.30;;;15.10;99.90;;;;;;4999018;28;20225;-70
2021/09/02 03:04:05;;;;;;;6.17;4.70;;;15.00;99.90;;;;;;4996675;28;20276;-69
2021/09/02 03:06:31;;;;;;;7.23;5.23;;;15.00;99.90;;;;;;4996719;28;20228;-68
2021/09/02 03:08:57;;;;;;;7.50;4.80;;;15.00;99.90;;;;;;5004029;28;20452;-68
2021/09/02 03:11:22;;;;;;;5.63;4.37;;;15.00;99.90;;;;;;4987722;28;20301;-69
2021/09/02 03:13:48;;;;;;;7.00;4.70;;;15.00;99.90;;;;;;4998406;28;20274;-68
2021/09/02 03:16:14;;;;;;;6.60;4.20;;;15.00;99.90;;;;;;4983124;28;20225;-69
2021/09/02 03:18:40;;;;;;;6.23;4.23;;;14.90;99.90;;;;;;4982131;28;20226;-68
2021/09/02 03:21:06;;;;;;;6.10;4.07;;;14.80;99.90;;;;;;4992059;28;20472;-69
2021/09/02 03:23:32;;;;;;;4.60;4.20;;;14.90;99.90;;;;;;5006057;28;20225;-69
2021/09/02 03:25:57;;;;;;;7.40;4.03;;;14.80;99.90;;;;;;4987645;28;20278;-68
2021/09/02 03:28:23;;;;;;;8.00;5.17;;;14.80;99.90;;;;;;4989273;28;20463;-69
2021/09/02 03:30:49;;;;;;;5.37;4.43;;;14.80;99.90;;;;;;4987197;28;20691;-69
2021/09/02 03:33:14;;;;;;;7.30;4.50;;;14.80;99.90;;;;;;4985960;28;20241;-69
2021/09/02 03:35:40;;;;;;;8.60;4.60;;;14.80;99.90;;;;;;4985069;28;20214;-68
2021/09/02 03:38:06;;;;;;;7.90;5.57;;;14.80;99.90;;;;;;4987925;28;20217;-69
2021/09/02 03:40:32;;;;;;;7.50;4.40;;;14.80;99.90;;;;;;4989378;28;20233;-69
2021/09/02 03:42:58;;;;;;;6.40;4.63;;;14.80;99.90;;;;;;5000217;28;20473;-68
2021/09/02 03:45:24;;;;;;;5.40;4.70;;;14.80;99.90;;;;;;4978891;28;20476;-69
2021/09/02 03:47:50;;;;;;;8.97;5.90;;;14.70;99.90;;;;;;4990766;28;20257;-69
2021/09/02 03:50:17;;;;;;;5.47;4.40;;;14.70;99.90;;;;;;4997465;28;20229;-69
2021/09/02 03:52:43;;;;;;;5.93;5.30;;;14.70;99.90;;;;;;4997362;28;20467;-70
2021/09/02 03:55:10;;;;;;;7.83;5.43;;;14.60;99.90;;;;;;4985419;28;20459;-69
2021/09/02 03:57:35;;;;;;;7.07;5.50;;;14.60;99.90;;;;;;4986817;28;20574;-69
2021/09/02 04:00:04;;;;;;;9.37;6.13;;;14.60;99.90;;;;;;4997384;28;20928;-69
2021/09/02 04:02:31;;;;;;;7.30;5.90;;;14.50;99.90;;;;;;5001091;28;20213;-69
2021/09/02 04:04:57;;;;;;;6.20;4.53;;;14.50;99.90;;;;;;5000930;28;20479;-68
2021/09/02 04:07:23;;;;;;;7.13;4.47;;;14.50;99.90;;;;;;4982847;28;20511;-69
2021/09/02 04:09:48;;;;;;;5.97;4.97;;;14.50;99.90;;;;;;4999845;28;20538;-69
2021/09/02 04:12:14;;;;;;;6.23;4.80;;;14.50;99.90;;;;;;4994395;28;20298;-69
2021/09/02 04:14:39;;;;;;;6.13;4.80;;;14.50;99.90;;;;;;5003829;28;20213;-69
2021/09/02 04:17:05;;;;;;;6.47;3.53;;;14.50;99.90;;;;;;4985342;28;20691;-69
2021/09/02 04:19:31;;;;;;;6.80;4.73;;;14.40;99.90;;;;;;4983431;28;20240;-68
2021/09/02 04:21:57;;;;;;;6.47;4.77;;;14.40;99.90;;;;;;4987881;28;21160;-69
2021/09/02 04:24:23;;;;;;;6.37;4.40;;;14.40;99.90;;;;;;4998147;28;20291;-69
2021/09/02 04:26:48;;;;;;;6.47;5.07;;;14.40;99.90;;;;;;4997756;28;20217;-69
2021/09/02 04:29:14;;;;;;;8.07;4.80;;;14.40;99.90;;;;;;4989168;28;20221;-69
2021/09/02 04:31:40;;;;;;;5.87;4.80;;;14.40;99.90;;;;;;5002339;28;20217;-68
2021/09/02 04:34:05;;;;;;;6.20;4.80;;;14.40;99.90;;;;;;4992694;28;20313;-68
2021/09/02 04:36:31;;;;;;;6.50;4.67;;;14.40;99.90;;;;;;4989205;28;20753;-69
2021/09/02 04:38:57;;;;;;;9.83;4.63;;;14.40;99.90;;;;;;5002341;28;20379;-69
2021/09/02 04:41:22;;;;;;;7.30;5.40;;;14.40;99.90;;;;;;5004522;28;20279;-68
2021/09/02 04:43:48;;;;;;;9.10;5.13;;;14.40;99.90;;;;;;5005734;28;20221;-69
2021/09/02 04:46:14;;;;;;;7.57;4.47;;;14.30;99.90;;;;;;5017784;28;20225;-69
2021/09/02 04:48:40;;;;;;;6.73;5.07;;;14.30;99.90;;;;;;5009505;28;20223;-69
2021/09/02 04:51:05;;;;;;;7.83;4.70;;;14.30;99.90;;;;;;4978761;28;20548;-68
2021/09/02 04:53:31;;;;;;;6.90;4.70;;;14.30;99.90;;;;;;5004355;28;20217;-69
2021/09/02 04:55:56;;;;;;;5.30;4.50;;;14.30;99.90;;;;;;4998081;28;20277;-68
2021/09/02 04:58:22;;;;;;;6.67;5.20;;;14.30;99.90;;;;;;4987625;28;20654;-69
2021/09/02 05:00:48;;;;;;;6.10;4.20;;;14.30;99.90;;;;;;5002983;28;20217;-69
2021/09/02 05:03:14;;;;;;;6.53;5.53;;;14.30;99.90;;;;;;5008098;28;20703;-68
2021/09/02 05:05:39;;;;;;;8.90;5.23;;;14.20;99.90;;;;;;4989762;28;20596;-68
2021/09/02 05:08:06;;;;;;;7.23;5.13;;;14.20;99.90;;;;;;5007419;28;20217;-68
2021/09/02 05:10:32;;;;;;;9.70;5.20;;;14.20;99.90;;;;;;5000878;28;20228;-69
2021/09/02 05:12:58;;;;;;;6.50;5.07;;;14.20;99.90;;;;;;4998236;28;20469;-68
2021/09/02 05:15:23;;;;;;;6.43;4.83;;;14.20;99.90;;;;;;5007241;28;20563;-68
2021/09/02 05:17:49;;;;;;;8.13;5.10;;;14.20;99.90;;;;;;4989856;28;20623;-69
2021/09/02 05:20:16;;;;;;;6.07;4.90;;;14.20;99.90;;;;;;4991034;28;20296;-69
2021/09/02 05:22:44;;;;;;;8.63;5.53;;;14.20;99.90;;;;;;4990367;28;20221;-68
2021/09/02 05:25:11;;;;;;;13.07;5.97;;;14.20;99.90;;;;;;4991688;28;20457;-68
2021/09/02 05:27:37;;;;;;;9.60;5.93;;;14.20;99.90;;;;;;5006874;28;21055;-69
2021/09/02 05:30:06;;;;;;;7.33;5.20;;;14.20;99.90;;;;;;5010006;28;20455;-68
2021/09/02 05:32:32;;;;;;;9.47;5.40;;;14.20;99.90;;;;;;4999187;28;21036;-69
2021/09/02 05:34:57;;;;;;;6.90;4.60;;;14.20;99.90;;;;;;5004111;28;20468;-68
2021/09/02 05:37:23;;;;;;;10.13;5.10;;;14.20;99.90;;;;;;4989407;28;20221;-70
2021/09/02 05:39:49;;;;;;;7.73;5.73;;;14.20;99.90;;;;;;4988941;28;20217;-70
2021/09/02 05:42:15;;;;;;;7.90;5.37;;;14.20;99.90;;;;;;4990610;28;20235;-70
2021/09/02 05:44:40;;;;;;;5.60;5.07;;;14.20;99.90;;;;;;4989175;28;20213;-69
2021/09/02 05:47:06;;;;;;;7.97;5.10;;;14.20;99.90;;;;;;5006405;28;20224;-70
2021/09/02 05:49:32;;;;;;;8.23;4.60;;;14.20;99.90;;;;;;4997074;28;20304;-69
2021/09/02 05:51:57;;;;;;;5.73;4.60;;;14.20;99.90;;;;;;4996120;28;20726;-69
2021/09/02 05:54:24;;;;;;;8.10;5.57;;;14.20;99.90;;;;;;4990994;28;20224;-69
2021/09/02 05:56:49;;;;;;;8.87;5.93;;;14.20;99.90;;;;;;5006340;28;20213;-69
2021/09/02 05:59:15;;;;;;;6.37;4.80;;;14.20;99.90;;;;;;4989880;28;21042;-69
2021/09/02 06:01:41;;;;;;;7.10;5.30;;;14.20;99.90;;;;;;4986831;28;20663;-69
2021/09/02 06:04:06;;;;;;;6.03;4.53;;;14.20;99.90;;;;;;5006502;28;20213;-69
2021/09/02 06:06:32;;;;;;;6.80;4.90;;;14.20;99.90;;;;;;5006692;28;20224;-69
2021/09/02 06:08:58;;;;;;;9.33;5.20;;;14.20;99.90;;;;;;4987923;28;20225;-69
2021/09/02 06:11:24;;;;;;;5.90;4.57;;;14.30;99.90;;;;;;4989544;28;20456;-69
2021/09/02 06:13:49;;;;;;;8.23;4.40;;;14.30;99.90;;;;;;5004780;28;20221;-69
2021/09/02 06:16:15;;;;;;;6.13;5.13;;;14.30;99.90;;;;;;5006863;28;20306;-69
2021/09/02 06:18:41;;;;;;;6.77;4.63;;;14.30;99.90;;;;;;5002889;28;20217;-69
2021/09/02 06:21:06;;;;;;;6.27;4.53;;;14.30;99.90;;;;;;4989928;28;20236;-70
2021/09/02 06:23:32;;;;;;;8.87;5.37;;;14.40;99.90;;;;;;4996024;28;20217;-70
2021/09/02 06:25:58;;;;;;;6.70;4.60;;;14.40;99.90;;;;;;4987525;28;20228;-69
2021/09/02 06:28:24;;;;;;;4.63;4.13;;;14.40;99.90;;;;;;5006792;28;20235;-70
2021/09/02 06:30:50;;;;;;;5.20;4.40;;;14.40;99.90;;;;;;5003445;28;21030;-69
2021/09/02 06:33:16;;;;;;;13.27;6.10;;;14.50;99.90;;;;;;5005052;28;20217;-69
2021/09/02 06:35:42;;;;;;;6.00;5.13;;;14.50;99.90;;;;;;4988100;28;20302;-70
2021/09/02 06:38:07;;;;;;;8.80;5.17;;;14.50;99.90;;;;;;5006354;28;20545;-69
2021/09/02 06:40:33;;;;;;;8.27;5.37;;;14.50;99.90;;;;;;4986419;28;20320;-69
2021/09/02 06:43:00;;;;;;;7.27;4.97;;;14.60;99.90;;;;;;5002168;28;20229;-69
2021/09/02 06:45:25;;;;;;;7.43;4.70;;;14.60;99.90;;;;;;5007065;28;20961;-69
2021/09/02 06:47:51;;;;;;;7.03;4.73;;;14.60;99.90;;;;;;5001661;28;20542;-69
2021/09/02 06:50:17;;;;;;;6.53;4.90;;;14.70;99.90;;;;;;4997111;28;20740;-70
2021/09/02 06:52:43;;;;;;;6.80;4.80;;;14.70;99.90;;;;;;5002793;28;20228;-70
2021/09/02 06:55:11;;;;;;;7.67;4.80;;;14.80;99.90;;;;;;5005034;28;20464;-70
2021/09/02 06:57:37;;;;;;;6.90;4.97;;;14.80;99.90;;;;;;4982335;28;20488;-69
2021/09/02 07:00:07;;;;;;;6.00;4.40;;;14.90;99.90;;;;;;4988160;28;20487;-69
2021/09/02 07:02:34;;;;;;;7.30;4.30;;;15.00;99.90;;;;;;5000619;28;20224;-69
2021/09/02 07:05:00;;;;;;;8.33;4.73;;;15.10;99.90;;;;;;4982386;28;20539;-68
2021/09/02 07:07:26;;;;;;;6.00;4.57;;;15.10;99.90;;;;;;5005297;28;20838;-70
2021/09/02 07:09:52;;;;;;;8.23;5.80;;;15.20;99.90;;;;;;4987446;28;20456;-69
2021/09/02 07:12:18;;;;;;;7.90;5.10;;;15.20;99.90;;;;;;5005593;28;20732;-69
2021/09/02 07:14:44;;;;;;;6.90;4.80;;;15.30;99.90;;;;;;5003177;28;20219;-69
2021/09/02 07:17:10;;;;;;;8.70;5.10;;;15.40;99.90;;;;;;5007041;28;20546;-69
2021/09/02 07:19:35;;;;;;;6.27;4.63;;;15.50;99.90;;;;;;5005884;28;20237;-68
2021/09/02 07:22:01;;;;;;;7.50;5.20;;;15.60;99.90;;;;;;5010227;28;20232;-70
2021/09/02 07:24:27;;;;;;;6.70;5.50;;;15.70;99.90;;;;;;5009040;28;20308;-70
2021/09/02 07:26:52;;;;;;;9.13;5.90;;;15.80;99.90;;;;;;5023478;28;20224;-70
2021/09/02 07:29:18;;;;;;;10.13;6.13;;;15.90;99.90;;;;;;5025710;28;20220;-69
2021/09/02 07:31:44;;;;;;;9.20;6.30;;;16.00;99.90;;;;;;5022636;28;20217;-69
2021/09/02 07:34:10;;;;;;;8.63;5.80;;;16.00;99.90;;;;;;5025397;28;20231;-69
2021/09/02 07:36:37;;;;;;;7.07;5.50;;;16.10;99.90;;;;;;5007967;28;20452;-70
2021/09/02 07:39:04;;;;;;;7.67;5.60;;;16.20;99.90;;;;;;4989189;28;20221;-70
2021/09/02 07:41:29;;;;;;;7.00;5.20;;;16.30;99.90;;;;;;4988171;28;20464;-69
2021/09/02 07:43:55;;;;;;;6.17;5.00;;;16.30;99.90;;;;;;4987352;28;21005;-69
2021/09/02 07:46:21;;;;;;;8.50;5.87;;;16.40;99.90;;;;;;4987503;28;20225;-69
2021/09/02 07:48:46;;;;;;;8.47;5.40;;;16.50;99.90;;;;;;4992724;28;20266;-69
2021/09/02 07:51:17;;;;;;;6.53;5.73;;;16.60;99.90;;;;;;4988671;28;20232;-69
2021/09/02 07:53:42;;;;;;;7.63;5.60;;;16.70;99.90;;;;;;5002662;28;20231;-69
2021/09/02 07:56:09;;;;;;;9.20;5.60;;;16.70;99.90;;;;;;4985575;28;20461;-70
2021/09/02 07:58:34;;;;;;;7.70;5.50;;;16.80;99.90;;;;;;4986006;28;20226;-69
2021/09/02 08:01:01;;;;;;;10.13;5.97;;;16.80;99.90;;;;;;4991036;28;20480;-69
2021/09/02 08:03:26;;;;;;;6.47;5.63;;;16.90;99.90;;;;;;4986101;28;20649;-70
2021/09/02 08:05:53;;;;;;;7.43;5.27;;;17.00;99.90;;;;;;4986577;28;20465;-70
2021/09/02 08:08:18;;;;;;;10.17;5.70;;;17.10;99.90;;;;;;5008569;28;20220;-69
2021/09/02 08:10:45;;;;;;;7.27;4.33;;;17.20;99.90;;;;;;4989055;28;20452;-69
2021/09/02 08:13:11;;;;;;;8.53;5.60;;;17.30;99.90;;;;;;5006906;28;20217;-69
2021/09/02 08:15:38;;;;;;;8.17;5.80;;;17.30;99.90;;;;;;5007175;28;21048;-70
2021/09/02 08:18:04;;;;;;;8.23;6.07;;;17.40;99.90;;;;;;4991541;28;20440;-68
2021/09/02 08:20:31;;;;;;;11.67;5.70;;;17.50;99.90;;;;;;4990795;28;20522;-69
2021/09/02 08:22:58;;;;;;;8.57;6.30;;;17.60;99.90;;;;;;5004166;28;20467;-70
2021/09/02 08:25:23;;;;;;;8.87;4.80;;;17.60;99.90;;;;;;5003660;28;20503;-71
2021/09/02 08:27:49;;;;;;;6.67;5.17;;;17.70;99.90;;;;;;4989124;28;20490;-70
2021/09/02 08:30:19;;;;;;;8.90;5.57;;;17.80;99.90;;;;;;4991793;28;20678;-70
2021/09/02 08:32:48;;;;;;;7.90;5.00;;;17.90;99.90;;;;;;5004724;28;20217;-70
2021/09/02 08:35:34;;;;;;;5.73;4.73;;;18.00;99.90;;;;;;4990737;28;20447;-70
2021/09/02 08:38:06;;;;;;;5.53;4.40;;;18.20;99.90;;;;;;4970177;28;21044;-70
2021/09/02 08:40:35;;;;;;;7.47;5.67;;;18.20;99.90;;;;;;4990319;28;20482;-70
2021/09/02 08:43:01;;;;;;;8.20;5.27;;;18.20;99.90;;;;;;4986546;28;20585;-69
2021/09/02 08:45:29;;;;;;;7.17;5.33;;;18.30;99.90;;;;;;4987488;28;20468;-70
2021/09/02 08:47:54;;;;;;;8.20;5.00;;;18.40;99.90;;;;;;4986776;28;20464;-70
2021/09/02 08:50:23;;;;;;;6.93;5.70;;;18.40;99.90;;;;;;4994800;28;20466;-69
2021/09/02 08:52:50;;;;;;;5.40;4.90;;;18.60;99.90;;;;;;4985196;28;20225;-68
2021/09/02 08:55:16;;;;;;;10.20;6.03;;;18.60;99.90;;;;;;5005091;28;20448;-70
2021/09/02 08:57:46;;;;;;;7.13;5.93;;;18.60;99.90;;;;;;4987449;28;20471;-69
2021/09/02 09:00:12;;;;;;;8.27;6.00;;;18.70;99.90;;;;;;5003773;28;20535;-69
2021/09/02 09:02:45;;;;;;;5.33;4.50;;;18.90;99.90;;;;;;5001972;28;20554;-71
2021/09/02 09:05:20;;;;;;;7.53;5.73;;;18.90;99.90;;;;;;5006241;28;20217;-70
2021/09/02 09:07:47;;;;;;;12.20;5.90;;;19.20;99.90;;;;;;5002640;28;20474;-70
2021/09/02 09:10:14;;;;;;;6.30;5.30;;;19.20;99.90;;;;;;4988423;28;20460;-69
2021/09/02 09:12:42;;;;;;;12.33;6.30;;;19.30;99.90;;;;;;4982562;28;20843;-69
2021/09/02 09:15:18;;;;;;;5.37;4.43;;;19.30;99.90;;;;;;5006248;28;20452;-69
2021/09/02 09:17:45;;;;;;;5.93;5.27;;;19.40;99.90;;;;;;4997888;28;20456;-69
2021/09/02 09:20:11;;;;;;;5.87;5.03;;;19.60;99.90;;;;;;4987189;28;20455;-69
2021/09/02 09:22:37;;;;;;;9.50;6.03;;;19.70;99.90;;;;;;5004298;28;20468;-70
2021/09/02 09:25:08;;;;;;;8.53;5.27;;;19.80;99.90;;;;;;4983545;28;20471;-69
2021/09/02 09:27:43;;;;;;;7.63;5.60;;;20.00;99.90;;;;;;5001544;28;20222;-69
2021/09/02 09:30:13;;;;;;;7.80;5.60;;;20.10;99.90;;;;;;5004777;28;20466;-69
2021/09/02 09:32:43;;;;;;;6.53;5.60;;;20.10;99.90;;;;;;4985612;28;20472;-70
2021/09/02 09:35:13;;;;;;;6.37;5.53;;;20.10;99.90;;;;;;4988472;28;20487;-69
2021/09/02 09:37:39;;;;;;;6.53;5.10;;;20.20;99.90;;;;;;4986652;28;20843;-70
2021/09/02 09:40:09;;;;;;;7.03;5.97;;;20.40;99.90;;;;;;5003900;28;20455;-70
2021/09/02 09:42:36;;;;;;;7.73;5.13;;;20.50;99.90;;;;;;4987324;28;20472;-70
2021/09/02 09:45:01;;;;;;;7.10;5.30;;;20.50;99.90;;;;;;4983950;28;21072;-68
2021/09/02 09:47:33;;;;;;;6.80;6.03;;;20.50;99.90;;;;;;5004789;28;20543;-70
2021/09/02 09:50:01;;;;;;;10.30;6.17;;;20.50;99.90;;;;;;4995282;28;20224;-69
2021/09/02 09:52:32;;;;;;;5.60;5.10;;;20.50;99.90;;;;;;4984393;28;20549;-70
2021/09/02 09:55:08;;;;;;;5.13;4.60;;;20.50;99.90;;;;;;5002005;28;20455;-69
2021/09/02 09:57:35;;;;;;;6.10;5.13;;;20.70;99.90;;;;;;5003297;28;20563;-70
2021/09/02 10:00:05;;;;;;;10.47;6.10;;;20.90;99.90;;;;;;5001034;28;20448;-70
2021/09/02 10:02:39;;;;;;;6.10;5.50;;;21.10;99.90;;;;;;5002087;28;20484;-70
2021/09/02 10:05:07;;;;;;;5.97;5.20;;;21.20;99.90;;;;;;4983967;28;20452;-69
2021/09/02 10:07:35;;;;;;;5.77;4.80;;;21.20;99.90;;;;;;4983646;28;20465;-70
2021/09/02 10:10:02;;;;;;;7.07;6.13;;;21.40;99.90;;;;;;4998209;28;20451;-70
2021/09/02 10:12:34;;;;;;;5.80;5.13;;;21.40;99.90;;;;;;5000108;28;20542;-70
2021/09/02 10:15:11;;;;;;;5.33;4.83;;;21.50;99.90;;;;;;4997791;28;20452;-68
2021/09/02 10:17:39;;;;;;;7.50;5.20;;;21.40;99.90;;;;;;4996548;28;20500;-69
2021/09/02 10:20:13;;;;;;;5.93;5.33;;;21.30;99.90;;;;;;4981201;28;20452;-70
2021/09/02 10:22:39;;;;;;;5.73;5.17;;;21.40;99.90;;;;;;4989955;28;20476;-70
2021/09/02 10:25:34;;;;;;;9.23;5.73;;;21.50;99.90;;;;;;5001033;28;20475;-70
2021/09/02 10:28:06;;;;;;;7.50;5.80;;;21.70;99.90;;;;;;4979446;28;20221;-70
2021/09/02 10:30:38;;;;;;;7.07;6.33;;;21.70;99.90;;;;;;4997923;28;20563;-70
2021/09/02 10:33:43;;;;;;;6.63;5.70;;;21.80;99.90;;;;;;5000361;28;20832;-71
2021/09/02 10:36:11;;;;;;;6.90;5.60;;;21.70;99.90;;;;;;4987462;28;20459;-70
2021/09/02 10:38:45;;;;;;;6.27;5.50;;;21.70;99.90;;;;;;5003972;28;20814;-70
2021/09/02 10:41:12;;;;;;;6.00;5.40;;;21.80;99.90;;;;;;4985931;28;20856;-69
2021/09/02 10:43:55;;;;;;;5.63;5.00;;;21.90;99.90;;;;;;4984104;28;20500;-70
2021/09/02 10:46:23;;;;;;;6.07;5.20;;;22.00;99.90;;;;;;4995308;28;20489;-70
2021/09/02 10:48:49;;;;;;;6.80;5.47;;;22.10;99.90;;;;;;5020770;28;20477;-69
2021/09/02 10:51:38;;;;;;;6.30;5.70;;;22.10;99.90;;;;;;5002632;28;20467;-70
2021/09/02 10:54:06;;;;;;;5.60;4.70;;;22.20;99.90;;;;;;4987414;28;20229;-70
2021/09/02 10:56:34;;;;;;;7.57;4.97;;;22.30;99.90;;;;;;4987165;28;20854;-70
2021/09/02 10:58:59;;;;;;;5.90;5.20;;;22.30;99.90;;;;;;4985085;28;20456;-70
2021/09/02 11:01:27;;;;;;;5.60;5.10;;;22.30;99.90;;;;;;5001764;28;20588;-70
2021/09/02 11:03:56;;;;;;;5.70;5.20;;;22.20;99.90;;;;;;5000990;28;20224;-69
2021/09/02 11:06:22;;;;;;;5.43;4.93;;;22.40;99.90;;;;;;4986811;28;20468;-69
2021/09/02 11:08:47;;;;;;;6.87;5.70;;;22.60;99.90;;;;;;4984578;28;20472;-70
2021/09/02 11:11:19;;;;;;;7.37;5.10;;;22.70;99.90;;;;;;4983158;28;21056;-69
2021/09/02 11:13:47;;;;;;;6.87;5.43;;;22.70;99.90;;;;;;4988511;28;20248;-69
2021/09/02 11:16:18;;;;;;;5.60;5.10;;;22.70;99.90;;;;;;4989274;28;20467;-69
2021/09/02 11:18:48;;;;;;;6.17;4.53;;;22.70;99.90;;;;;;4984950;28;20463;-70
2021/09/02 11:21:25;;;;;;;5.87;5.30;;;22.80;99.90;;;;;;5005476;28;20475;-70
2021/09/02 11:23:58;;;;;;;5.60;4.70;;;22.80;99.90;;;;;;5006306;28;20529;-70
2021/09/02 11:26:38;;;;;;;5.33;4.43;;;22.70;99.90;;;;;;5008317;28;20501;-70
2021/09/02 11:29:05;;;;;;;5.20;4.70;;;22.60;99.90;;;;;;5008281;28;20450;-70
2021/09/02 11:31:31;;;;;;;5.20;4.70;;;22.50;99.90;;;;;;5024412;28;20550;-70
2021/09/02 11:33:59;;;;;;;4.70;4.30;;;22.60;99.90;;;;;;5005800;28;20467;-70
2021/09/02 11:36:26;;;;;;;5.70;4.50;;;22.80;99.90;;;;;;5024590;28;20463;-70
2021/09/02 11:39:08;;;;;;;4.90;4.40;;;22.90;99.90;;;;;;5022482;28;20463;-70
2021/09/02 11:41:35;;;;;;;5.40;4.70;;;22.70;99.90;;;;;;5025490;28;20475;-70
2021/09/02 11:44:01;;;;;;;5.03;4.53;;;22.70;99.90;;;;;;5010209;28;20474;-70
2021/09/02 11:46:27;;;;;;;8.30;4.80;;;22.70;99.90;;;;;;5028102;28;20459;-70
2021/09/02 11:48:58;;;;;;;6.63;5.40;;;22.80;99.90;;;;;;5025380;28;20458;-70
2021/09/02 11:51:31;;;;;;;6.67;5.20;;;22.80;99.90;;;;;;4990898;28;20221;-70
2021/09/02 11:54:03;;;;;;;5.53;5.03;;;22.80;99.90;;;;;;5007959;28;20467;-69
2021/09/02 11:56:30;;;;;;;5.70;5.13;;;22.80;99.90;;;;;;4988831;28;20511;-70
2021/09/02 11:58:59;;;;;;;7.63;4.93;;;22.80;99.90;;;;;;4986691;28;20904;-70
2021/09/02 12:01:26;;;;;;;5.83;5.13;;;22.80;99.90;;;;;;5000810;28;20973;-70
2021/09/02 12:03:53;;;;;;;6.60;5.20;;;22.90;99.90;;;;;;5007313;28;20460;-70
2021/09/02 12:06:36;;;;;;;7.23;5.50;;;23.00;99.90;;;;;;4991870;28;20462;-69
2021/09/02 12:09:04;;;;;;;6.40;5.80;;;22.80;99.90;;;;;;5006919;28;20460;-70
2021/09/02 12:11:30;;;;;;;6.90;5.90;;;22.60;99.90;;;;;;5009687;28;20498;-69
2021/09/02 12:13:57;;;;;;;6.57;5.87;;;22.60;99.90;;;;;;4986777;28;20548;-70
2021/09/02 12:16:31;;;;;;;6.37;5.47;;;22.60;99.90;;;;;;5004926;28;20460;-70
2021/09/02 12:19:01;;;;;;;6.27;5.67;;;22.80;99.90;;;;;;4970360;28;20477;-69
2021/09/02 12:21:30;;;;;;;6.33;5.40;;;22.90;99.90;;;;;;5009467;28;20483;-69
2021/09/02 12:24:14;;;;;;;7.00;6.00;;;23.10;99.90;;;;;;5025434;28;20968;-70
2021/09/02 12:26:49;;;;;;;6.90;6.20;;;23.10;99.90;;;;;;5009039;28;20473;-69
2021/09/02 12:29:21;;;;;;;6.63;5.60;;;22.90;99.90;;;;;;5027376;28;20462;-69
2021/09/02 12:31:47;;;;;;;7.17;6.13;;;22.80;99.90;;;;;;5002900;28;20547;-69
2021/09/02 12:34:22;;;;;;;8.77;6.33;;;22.80;99.90;;;;;;5007760;28;20815;-69
2021/09/02 12:37:01;;;;;;;6.60;5.90;;;22.70;99.90;;;;;;5005546;28;20546;-69
2021/09/02 12:39:32;;;;;;;6.87;6.10;;;22.70;99.90;;;;;;5007305;28;20455;-70
2021/09/02 12:42:00;;;;;;;6.60;6.00;;;22.80;99.90;;;;;;5004453;28;20570;-69
2021/09/02 12:44:34;;;;;;;8.30;5.93;;;22.80;99.90;;;;;;5008962;28;20550;-70
2021/09/02 12:47:14;;;;;;;7.50;5.60;;;22.70;99.90;;;;;;5018828;28;20470;-70